Hovedside
METAR-TAF:

METAR-TAF

Lufthavner :

Skellefteå lufthavn

Skellefteå, Sverige

breddegrad: 64-38N, lengdegrad: 021-05E, høyde over havet: 49 m

Gjeldene værobservasjon

Denne rapporten ble laget for 34 minutter siden, klokken 19:20 UTC
Vind 8 kt fra Sør, skiftende mellom Sørøst og Sør-sørvest
Temperatur 18°C
Luftfuktighet 83%
Trykk 1010 hPa
Sikt 10 km eller mer
Brutte skyer i en høyde av 1600 ft
Overskyet i en høyde av 5900 ft

METAR: ESNS 161920Z 17008KT 130V200 9999 BKN016 OVC059 18/15 Q1010

Tid: 21:54 (19:54 UTC)

Varsel

Denne rapporten ble laget for 2 timer og 24 minutter siden, klokken 17:30 UTC
Varsel gyldig fra 16. klokken 18 UTC til 16. klokken 22 UTC
Vind 9 kt fra Sør
Sikt 10 km eller mer
Få skyer i en høyde av 1200 ft
Brutte skyer i en høyde av 2500 ft
Sannsynlighet 40%
fra 16. klokken 18 UTC til 16. klokken 19 UTC
Brutte skyer i en høyde av 900 ft

TAF: ESNS 161730Z 1618/1622 18009KT 9999 FEW012 BKN025 PROB40 1618/1619 BKN009

Værobservasjoner og værvarsel for over 4000 flyplasser (METAR- og TAF-rapporter).

Tilgjengelige stasjoner er representert av de røde og gule prikkene på kartet.

Hold musepekeren over prikken for å se navnet på stasjonen.

Klikk så for å se værobservasjoner og -varsler.

For å forandre kartet kan du klikke på den grønne knappen med svart kryss for å zoome inn, på den grønne knappen med strek for å zoome ut, eller på de grønne pilene for å se tilstøtende kart.


METAR-TAF: